Troy Municipal Airport
KTOI : now visible

Airfield :











YOU CAN JOIN US ON...

 
LOGIN :

Register | Disclaimer

   EN    FR    IT 

 









Legend :    VFR   Marginal VFR   IFR   Intensive IFR   Very Intensive IFR
Visi :
Ceiling :
>= 8 km
>= 3000ft
5 to 8 km
1000 to 3000 ft
1500m to 5 km
500 to 1000 ft
800 to 1500m
200 to 500 ft
< 800m
< 200 ft
Symbols :   Thunderstorms  Fog  Heavy snow  Heavy precipitations  Wind > 20 kt






- Airport Elevation : 398 ft


KTOI - Troy Municipal

CURRENT METAR :
  • 141753Z AUTO 09006KT 10SM FEW045 OVC080 25/18 A3010 RMK AO2 SLP188 60000 T02500183 10250 20167 58013

EXPIRED METARs :
  • 141653Z AUTO 11005KT 10SM FEW033 FEW041 OVC050 24/18 A3011 RMK AO2 SLP194 T02390183
  • 141553Z AUTO VRB03KT 10SM SCT035 OVC055 22/19 A3012 RMK AO2 RAB08E27 SLP197 P0000 T02170189

TAF KTOI
Valid from the 14 at 18:00 until the 15 at 18:00 UTC


141725Z 1418/1518 08005KT P6SM VCSH BKN040 OVC050
FM150600 00000KT P6SM VCSH OVC050
FM151000 09002KT 4SM -RA BR OVC025
FM151200 10004KT 4SM -RA BR OVC010



MET'MAP, your aeronautical weather chart ! - Copyright ORBIFLY December 2007 - Disclaimer

ORBIFLY MET'MAP TEAM :

Programming & Development : Alexandra Zaïnal
Concept & Development : Baudouin d'Aumeries
Co-Development & Prog : Marc-Olivier Méhu
Technical & hardware support : Manuel Goepfert

Contact : metmap@orbifly.com




SOURCES & CREDITS :

   NOAA       Earth
Advisory